Terminal Aerodrome Forecast
Issued by NWS

Home | Current Version | Previous Version | Text Only | Print | Product List | Glossary On
Versions: 1 2 3 4 5 6 7 8 9 10 11 12 13 14 15 16 17 18 19 20 21 22
224
FTUS46 KLOX 172334
TAFBUR
TAF
KBUR 172334Z 1800/1824 18010KT P6SM SKC
     FM180400 15007KT P6SM SKC
     FM181000 VRB03KT 4SM BR BKN010
     FM181500 17003KT 4SM BR OVC008
     FM181700 VRB03KT 5SM BR BKN010
     FM181900 17005KT 6SM HZ SKC
     FM182200 18009KT P6SM SKC=

USA.gov is the U.S. government's official web portal to all federal, state and local government web resources and services.